createdAt,value
2022-08-29T00:02:17.978Z,100573.06
2022-08-29T00:04:48.759Z,100572.22
2022-08-29T00:07:19.479Z,100570.56
2022-08-29T00:09:49.942Z,100574.50
2022-08-29T00:12:20.380Z,100582.13
2022-08-29T00:14:52.036Z,100578.22
2022-08-29T00:17:22.283Z,100576.34
2022-08-29T00:19:52.653Z,100578.81
2022-08-29T00:22:22.897Z,100588.66
2022-08-29T00:24:53.124Z,100585.38
2022-08-29T00:27:23.725Z,100582.69
2022-08-29T00:29:54.693Z,100579.41
2022-08-29T00:32:25.381Z,100588.25
2022-08-29T00:34:55.915Z,100592.13
2022-08-29T00:37:27.203Z,100591.72
2022-08-29T00:39:59.075Z,100596.47
2022-08-29T00:42:30.025Z,100593.53
2022-08-29T00:45:00.425Z,100603.00
2022-08-29T00:47:35.755Z,100600.72
2022-08-29T00:50:10.299Z,100597.97
2022-08-29T00:52:48.974Z,100604.13
2022-08-29T00:55:23.970Z,100600.66
2022-08-29T00:58:00.822Z,100607.00
2022-08-29T01:00:32.364Z,100606.38
2022-08-29T01:03:04.338Z,100611.06
2022-08-29T01:05:36.378Z,100610.22
2022-08-29T01:08:10.055Z,100613.50
2022-08-29T01:10:59.090Z,100604.78
2022-08-29T01:13:36.375Z,100607.38
2022-08-29T01:16:08.604Z,100628.22
2022-08-29T01:18:41.296Z,100616.22
2022-08-29T01:21:33.191Z,100616.38
2022-08-29T01:24:18.573Z,100625.22
2022-08-29T01:26:49.757Z,100614.91
2022-08-29T01:29:20.003Z,100608.34
2022-08-29T01:31:57.240Z,100620.34
2022-08-29T01:34:28.934Z,100630.22
2022-08-29T01:37:05.832Z,100629.03
2022-08-29T01:39:39.205Z,100624.09
2022-08-29T01:42:13.560Z,100628.63
2022-08-29T01:44:49.751Z,100634.81
2022-08-29T01:47:20.706Z,100634.81
2022-08-29T01:49:50.665Z,100634.59
2022-08-29T01:52:21.908Z,100639.75
2022-08-29T01:54:52.042Z,100631.66
2022-08-29T01:57:22.701Z,100650.41
2022-08-29T01:59:53.031Z,100642.53
2022-08-29T02:02:27.781Z,100639.59
2022-08-29T02:05:00.804Z,100635.69
2022-08-29T02:07:31.133Z,100647.00
2022-08-29T02:10:01.336Z,100648.22
2022-08-29T02:12:32.883Z,100651.47
2022-08-29T02:15:03.635Z,100655.09
2022-08-29T02:17:34.208Z,100657.75
2022-08-29T02:20:06.242Z,100664.69
2022-08-29T02:22:40.572Z,100654.09
2022-08-29T02:25:30.522Z,100654.06
2022-08-29T02:28:01.104Z,100635.22
2022-08-29T02:30:31.415Z,100637.09
2022-08-29T02:33:00.814Z,100632.03
2022-08-29T02:35:35.996Z,100632.34
2022-08-29T02:38:08.661Z,100620.47
2022-08-29T02:40:39.747Z,100622.06
2022-08-29T02:43:10.596Z,100620.69
2022-08-29T02:45:43.689Z,100620.69
2022-08-29T02:48:14.884Z,100617.88
2022-08-29T02:50:51.680Z,100622.78
2022-08-29T02:53:27.210Z,100626.97
2022-08-29T02:55:57.579Z,100630.72
2022-08-29T02:58:28.820Z,100622.06
2022-08-29T03:00:59.129Z,100616.06
2022-08-29T03:03:29.864Z,100615.25
2022-08-29T03:05:59.203Z,100612.78
2022-08-29T03:08:29.152Z,100620.25
2022-08-29T03:10:59.574Z,100615.56
2022-08-29T03:13:30.202Z,100630.25
2022-08-29T03:16:01.335Z,100606.44
2022-08-29T03:18:32.295Z,100593.38
2022-08-29T03:21:03.207Z,100601.59
2022-08-29T03:23:33.391Z,100609.66
2022-08-29T03:26:03.844Z,100597.88
2022-08-29T03:28:34.025Z,100598.09
2022-08-29T03:31:04.860Z,100600.09
2022-08-29T03:33:35.029Z,100591.28
2022-08-29T03:39:30.740Z,100602.47
2022-08-29T03:42:13.193Z,100594.78
2022-08-29T03:44:59.139Z,100594.91
2022-08-29T03:50:28.299Z,100596.59
2022-08-29T03:53:19.330Z,100594.63
2022-08-29T03:56:18.791Z,100590.00
2022-08-29T03:58:53.234Z,100591.63
2022-08-29T04:01:27.388Z,100607.66
2022-08-29T04:10:20.845Z,100600.69
2022-08-29T04:12:54.497Z,100605.06
2022-08-29T04:15:27.313Z,100606.09
2022-08-29T04:18:02.007Z,100606.22
2022-08-29T04:20:35.835Z,100596.03
2022-08-29T04:23:06.374Z,100607.50
2022-08-29T04:25:39.825Z,100595.25
2022-08-29T04:28:14.302Z,100601.13
2022-08-29T04:30:51.362Z,100595.59
2022-08-29T04:33:24.770Z,100589.06
2022-08-29T04:35:55.450Z,100591.28
2022-08-29T04:38:25.496Z,100582.38
2022-08-29T04:40:55.574Z,100577.34
2022-08-29T04:43:25.823Z,100579.00
2022-08-29T04:45:59.625Z,100580.97
2022-08-29T04:48:30.981Z,100578.41
2022-08-29T04:51:03.369Z,100579.34
2022-08-29T04:53:34.005Z,100575.38
2022-08-29T04:56:08.879Z,100580.28
2022-08-29T04:58:43.559Z,100577.94
2022-08-29T05:01:20.401Z,100575.63
2022-08-29T05:03:51.120Z,100578.91
2022-08-29T05:06:23.454Z,100583.81
2022-08-29T05:08:59.095Z,100580.41
2022-08-29T05:11:33.020Z,100576.31
2022-08-29T05:14:03.905Z,100576.19
2022-08-29T05:16:38.563Z,100567.41
2022-08-29T05:19:09.806Z,100559.69
2022-08-29T05:21:42.147Z,100543.63
2022-08-29T05:24:14.128Z,100540.44
2022-08-29T05:26:46.939Z,100552.41
2022-08-29T05:29:16.968Z,100545.94
2022-08-29T05:31:47.724Z,100540.31
2022-08-29T05:34:34.792Z,100535.25
2022-08-29T05:37:09.135Z,100529.97
2022-08-29T05:39:41.692Z,100526.00
2022-08-29T05:42:13.785Z,100530.66
2022-08-29T05:44:44.639Z,100523.75
2022-08-29T05:47:17.409Z,100518.34
2022-08-29T05:49:49.343Z,100527.00
2022-08-29T05:52:22.272Z,100534.84
2022-08-29T05:54:53.005Z,100538.94
2022-08-29T05:57:25.589Z,100540.06
2022-08-29T05:59:56.716Z,100542.19
2022-08-29T06:02:36.714Z,100540.59
2022-08-29T06:05:18.749Z,100535.19
2022-08-29T06:07:49.742Z,100544.91
2022-08-29T06:10:20.055Z,100543.94
2022-08-29T06:12:50.104Z,100535.84
2022-08-29T06:15:20.208Z,100532.66
2022-08-29T06:17:50.916Z,100525.75
2022-08-29T06:20:20.935Z,100521.63
2022-08-29T06:22:50.925Z,100532.50
2022-08-29T06:25:39.818Z,100533.88
2022-08-29T06:28:10.719Z,100532.81
2022-08-29T06:30:43.322Z,100533.63
2022-08-29T06:33:13.532Z,100525.53
2022-08-29T06:35:43.456Z,100522.38
2022-08-29T06:38:14.206Z,100524.03
2022-08-29T06:40:45.006Z,100518.94
2022-08-29T06:43:15.498Z,100519.28
2022-08-29T06:45:46.608Z,100514.69
2022-08-29T06:48:17.279Z,100523.03
2022-08-29T06:50:48.109Z,100511.19
2022-08-29T06:53:27.554Z,100503.66
2022-08-29T06:56:11.912Z,100500.50
2022-08-29T06:58:41.901Z,100491.88
2022-08-29T07:01:15.744Z,100491.88
2022-08-29T07:03:46.234Z,100491.88
2022-08-29T07:06:18.014Z,100497.53
2022-08-29T07:08:55.805Z,100498.84
2022-08-29T07:11:28.391Z,100494.75
2022-08-29T07:14:01.484Z,100482.66
2022-08-29T07:16:32.622Z,100486.41
2022-08-29T07:19:04.491Z,100494.00
2022-08-29T07:21:35.266Z,100497.28
2022-08-29T07:24:06.427Z,100489.19
2022-08-29T07:26:42.663Z,100494.56
2022-08-29T07:29:17.820Z,100489.19
2022-08-29T07:31:49.240Z,100488.63
2022-08-29T07:34:21.149Z,100488.03
2022-08-29T07:36:56.073Z,100482.97
2022-08-29T07:39:29.811Z,100483.31
2022-08-29T07:42:08.628Z,100481.75
2022-08-29T07:44:39.436Z,100473.47
2022-08-29T07:47:12.784Z,100469.56
2022-08-29T07:49:43.789Z,100482.63
2022-08-29T07:52:13.982Z,100487.53
2022-08-29T07:54:44.703Z,100488.66
2022-08-29T07:57:17.846Z,100485.22
2022-08-29T07:59:48.486Z,100487.22
2022-08-29T08:02:18.100Z,100490.00
2022-08-29T08:04:48.413Z,100500.81
2022-08-29T08:07:22.782Z,100514.78
2022-08-29T08:10:00.440Z,100506.38
2022-08-29T08:12:31.079Z,100497.34
2022-08-29T08:15:02.159Z,100498.34
2022-08-29T08:17:32.808Z,100500.94
2022-08-29T08:20:03.467Z,100503.88
2022-08-29T08:22:34.133Z,100508.25
2022-08-29T08:25:06.532Z,100512.06
2022-08-29T08:27:41.238Z,100516.19
2022-08-29T08:30:14.743Z,100508.31
2022-08-29T08:32:49.573Z,100491.31
2022-08-29T08:35:23.147Z,100491.03
2022-08-29T08:37:54.592Z,100486.22
2022-08-29T08:40:31.748Z,100499.47
2022-08-29T08:43:04.782Z,100502.44
2022-08-29T08:45:47.430Z,100496.19
2022-08-29T08:48:25.009Z,100503.72
2022-08-29T08:51:17.958Z,100502.13
2022-08-29T08:53:54.036Z,100492.84
2022-08-29T08:56:45.785Z,100490.41
2022-08-29T08:59:19.773Z,100501.94
2022-08-29T09:02:14.282Z,100498.66
2022-08-29T09:04:53.828Z,100493.78
2022-08-29T09:07:48.215Z,100494.50
2022-08-29T09:10:38.233Z,100510.28
2022-08-29T09:13:26.575Z,100510.69
2022-08-29T09:16:01.449Z,100513.31
2022-08-29T09:18:54.080Z,100520.47
2022-08-29T09:21:42.118Z,100521.22
2022-08-29T09:24:19.824Z,100522.53
2022-08-29T09:26:50.902Z,100526.19
2022-08-29T09:29:22.296Z,100528.53
2022-08-29T09:32:22.759Z,100530.06
2022-08-29T09:35:09.658Z,100534.31
2022-08-29T09:37:40.743Z,100534.22
2022-08-29T09:40:15.831Z,100533.31
2022-08-29T09:43:04.295Z,100531.88
2022-08-29T09:45:34.570Z,100534.00
2022-08-29T09:48:19.034Z,100534.53
2022-08-29T09:50:49.500Z,100532.53
2022-08-29T09:53:25.897Z,100534.66
2022-08-29T09:55:56.190Z,100527.75
2022-08-29T09:58:26.439Z,100545.56
2022-08-29T10:01:12.887Z,100545.00
2022-08-29T10:03:53.735Z,100545.22
2022-08-29T10:06:27.620Z,100552.50
2022-08-29T10:09:22.352Z,100545.69
2022-08-29T10:12:07.841Z,100548.63
2022-08-29T10:14:54.821Z,100555.56
2022-08-29T10:17:56.597Z,100579.22
2022-08-29T10:20:53.836Z,100580.75
2022-08-29T10:23:46.247Z,100574.19
2022-08-29T10:26:48.419Z,100584.41
2022-08-29T10:29:59.414Z,100575.97
2022-08-29T10:32:46.109Z,100568.59
2022-08-29T10:35:26.192Z,100577.94
2022-08-29T10:38:16.071Z,100576.53
2022-08-29T10:40:46.772Z,100580.97
2022-08-29T10:43:47.032Z,100567.97
2022-08-29T10:46:46.365Z,100570.56
2022-08-29T10:49:46.367Z,100586.63
2022-08-29T10:52:46.872Z,100594.31
2022-08-29T10:56:15.612Z,100595.28
2022-08-29T10:59:16.579Z,100585.69
2022-08-29T11:05:52.383Z,100598.88
2022-08-29T11:09:12.970Z,100598.97
2022-08-29T11:11:51.203Z,100596.75
2022-08-29T11:14:30.800Z,100600.97
2022-08-29T11:17:03.510Z,100604.34
2022-08-29T11:20:38.539Z,100601.06
2022-08-29T11:23:40.946Z,100616.25
2022-08-29T11:26:42.376Z,100619.59
2022-08-29T11:33:19.856Z,100623.53
2022-08-29T11:36:26.956Z,100620.47
2022-08-29T11:39:19.839Z,100619.53
2022-08-29T11:41:58.754Z,100639.84
2022-08-29T11:44:37.869Z,100639.47
2022-08-29T11:47:33.904Z,100644.25
2022-08-29T11:50:17.104Z,100647.41
2022-08-29T11:53:01.960Z,100653.47
2022-08-29T11:55:42.053Z,100660.56
2022-08-29T11:58:18.568Z,100669.66
2022-08-29T12:00:55.936Z,100674.44
2022-08-29T12:03:37.295Z,100666.84
2022-08-29T12:06:28.351Z,100668.72
2022-08-29T12:09:52.268Z,100675.34
2022-08-29T12:12:48.573Z,100677.44
2022-08-29T12:15:33.694Z,100682.22
2022-08-29T12:18:14.748Z,100681.63
2022-08-29T12:20:51.466Z,100682.06
2022-08-29T12:23:46.885Z,100684.16
2022-08-29T12:26:48.447Z,100699.47
2022-08-29T12:29:25.871Z,100694.31
2022-08-29T12:32:22.588Z,100697.44
2022-08-29T12:35:25.238Z,100695.19
2022-08-29T12:38:15.541Z,100699.94
2022-08-29T12:41:09.280Z,100695.00
2022-08-29T12:43:46.101Z,100690.31
2022-08-29T12:46:31.311Z,100688.88
2022-08-29T12:49:17.328Z,100685.59
2022-08-29T12:51:52.720Z,100687.69
2022-08-29T12:54:46.031Z,100690.81
2022-08-29T12:57:30.933Z,100698.28
2022-08-29T13:00:32.495Z,100693.13
2022-08-29T13:03:52.610Z,100692.72
2022-08-29T13:09:43.898Z,100691.38
2022-08-29T13:12:17.070Z,100683.38
2022-08-29T13:14:59.735Z,100693.72
2022-08-29T13:17:39.372Z,100701.78
2022-08-29T13:20:43.325Z,100696.84
2022-08-29T13:23:19.175Z,100698.13
2022-08-29T13:25:52.863Z,100682.44
2022-08-29T13:29:00.123Z,100682.44
2022-08-29T13:31:39.217Z,100682.66
2022-08-29T13:34:09.493Z,100681.03
2022-08-29T13:37:01.593Z,100689.31
2022-08-29T13:39:41.085Z,100693.84
2022-08-29T13:42:21.396Z,100685.19
2022-08-29T13:44:53.083Z,100682.72
2022-08-29T13:47:35.037Z,100671.59
2022-08-29T13:50:11.160Z,100667.50
2022-08-29T13:52:41.300Z,100668.72
2022-08-29T13:55:12.171Z,100661.75
2022-08-29T13:57:43.584Z,100667.53
2022-08-29T14:00:14.973Z,100662.38
2022-08-29T14:02:45.750Z,100667.16
2022-08-29T14:05:22.151Z,100666.34
2022-08-29T14:07:54.007Z,100667.59
2022-08-29T14:10:24.682Z,100669.66
2022-08-29T14:12:54.730Z,100664.31
2022-08-29T14:15:24.782Z,100668.03
2022-08-29T14:17:54.967Z,100667.38
2022-08-29T14:20:25.808Z,100674.63
2022-08-29T14:22:56.001Z,100665.75
2022-08-29T14:25:26.889Z,100668.06
2022-08-29T14:27:57.066Z,100662.69
2022-08-29T14:30:27.804Z,100664.78
2022-08-29T14:32:57.944Z,100668.47
2022-08-29T14:35:31.923Z,100670.56
2022-08-29T14:41:08.751Z,100669.13
2022-08-29T14:44:20.202Z,100662.94
2022-08-29T14:46:51.954Z,100659.66
2022-08-29T14:49:22.341Z,100663.38
2022-08-29T14:51:52.862Z,100664.41
2022-08-29T14:54:22.969Z,100666.50
2022-08-29T14:56:55.607Z,100676.38
2022-08-29T14:59:26.901Z,100671.03
2022-08-29T15:01:58.067Z,100672.88
2022-08-29T15:04:35.528Z,100665.06
2022-08-29T15:07:13.372Z,100664.25
2022-08-29T15:09:45.369Z,100661.78
2022-08-29T15:12:19.185Z,100664.66
2022-08-29T15:14:51.361Z,100682.03
2022-08-29T15:17:21.975Z,100682.22
2022-08-29T15:22:48.715Z,100686.38
2022-08-29T15:25:20.368Z,100685.56
2022-08-29T15:27:50.061Z,100702.06
2022-08-29T15:30:26.512Z,100702.06
2022-08-29T15:32:56.887Z,100695.50
2022-08-29T15:35:28.298Z,100693.63
2022-08-29T15:37:58.950Z,100684.75
2022-08-29T15:40:30.143Z,100694.69
2022-08-29T15:43:00.571Z,100697.34
2022-08-29T15:45:32.043Z,100692.41
2022-08-29T15:48:03.420Z,100689.94
2022-08-29T15:50:33.978Z,100691.22
2022-08-29T15:53:05.936Z,100683.16
2022-08-29T15:55:35.948Z,100684.19
2022-08-29T15:58:07.379Z,100689.56
2022-08-29T16:00:37.420Z,100687.06
2022-08-29T16:03:08.994Z,100687.28
2022-08-29T16:05:41.482Z,100687.28
2022-08-29T16:08:12.944Z,100692.66
2022-08-29T16:10:47.729Z,100681.94
2022-08-29T16:13:18.205Z,100684.81
2022-08-29T16:15:50.361Z,100677.00
2022-08-29T16:18:20.533Z,100673.69
2022-08-29T16:20:50.120Z,100679.91
2022-08-29T16:23:22.928Z,100681.13
2022-08-29T16:25:52.920Z,100687.34
2022-08-29T16:28:23.176Z,100684.88
2022-08-29T16:30:54.611Z,100682.19
2022-08-29T16:33:25.044Z,100685.88
2022-08-29T16:35:55.725Z,100684.47
2022-08-29T16:38:25.804Z,100689.59
2022-08-29T16:40:56.119Z,100697.88
2022-08-29T16:43:26.646Z,100694.34
2022-08-29T16:45:56.657Z,100685.69
2022-08-29T16:48:26.695Z,100684.88
2022-08-29T16:50:56.915Z,100684.28
2022-08-29T16:53:27.653Z,100678.91
2022-08-29T16:55:57.860Z,100680.16
2022-08-29T16:58:46.177Z,100674.59
2022-08-29T17:01:15.621Z,100679.94
2022-08-29T17:03:45.489Z,100683.69
2022-08-29T17:06:15.472Z,100677.06
2022-08-29T17:08:45.516Z,100695.63
2022-08-29T17:11:15.310Z,100681.63
2022-08-29T17:13:45.499Z,100684.31
2022-08-29T17:16:16.170Z,100682.03
2022-08-29T17:18:48.096Z,100683.09
2022-08-29T17:21:18.886Z,100687.81
2022-08-29T17:23:49.755Z,100698.78
2022-08-29T17:26:21.317Z,100705.16
2022-08-29T17:28:52.558Z,100709.69
2022-08-29T17:31:23.506Z,100708.00
2022-08-29T17:33:55.073Z,100713.38
2022-08-29T17:36:25.268Z,100717.91
2022-08-29T17:38:55.300Z,100724.09
2022-08-29T17:41:25.277Z,100726.75
2022-08-29T17:43:55.575Z,100724.09
2022-08-29T17:46:25.733Z,100714.38
2022-08-29T17:48:55.251Z,100716.84
2022-08-29T17:51:25.464Z,100725.94
2022-08-29T17:53:55.757Z,100721.59
2022-08-29T17:56:46.112Z,100716.25
2022-08-29T17:59:17.856Z,100719.13
2022-08-29T18:01:48.474Z,100722.41
2022-08-29T18:04:19.055Z,100713.78
2022-08-29T18:06:49.117Z,100709.69
2022-08-29T18:09:19.838Z,100711.75
2022-08-29T18:11:52.097Z,100710.91
2022-08-29T18:14:25.000Z,100707.63
2022-08-29T18:16:56.246Z,100716.06
2022-08-29T18:19:28.352Z,100713.38
2022-08-29T18:21:58.379Z,100706.59
2022-08-29T18:24:28.731Z,100712.78
2022-08-29T18:26:58.763Z,100713.63
2022-08-29T18:29:28.815Z,100710.31
2022-08-29T18:31:58.950Z,100709.69
2022-08-29T18:34:29.852Z,100716.09
2022-08-29T18:36:59.972Z,100711.56
2022-08-29T18:39:31.256Z,100713.41
2022-08-29T18:42:13.357Z,100718.97
2022-08-29T18:45:01.219Z,100712.16
2022-08-29T18:47:31.617Z,100720.41
2022-08-29T18:50:20.543Z,100718.19
2022-08-29T18:52:56.337Z,100723.94
2022-08-29T18:55:27.061Z,100710.34
2022-08-29T18:57:58.462Z,100709.72
2022-08-29T19:00:29.447Z,100714.28
2022-08-29T19:03:08.581Z,100711.81
2022-08-29T19:05:42.258Z,100708.28
2022-08-29T19:08:13.234Z,100707.25
2022-08-29T19:10:46.599Z,100710.97
2022-08-29T19:13:18.187Z,100713.03
2022-08-29T19:15:49.838Z,100721.47
2022-08-29T19:18:20.242Z,100710.16
2022-08-29T19:21:09.237Z,100702.31
2022-08-29T19:23:42.856Z,100705.22
2022-08-29T19:26:18.751Z,100688.31
2022-08-29T19:28:49.634Z,100693.66
2022-08-29T19:31:20.572Z,100695.75
2022-08-29T19:33:50.875Z,100704.19
2022-08-29T19:36:21.004Z,100699.88
2022-08-29T19:38:51.661Z,100702.75
2022-08-29T19:41:21.816Z,100698.63
2022-08-29T19:43:52.886Z,100697.38
2022-08-29T19:46:25.466Z,100699.66
2022-08-29T19:48:58.745Z,100692.84
2022-08-29T19:51:34.042Z,100693.50
2022-08-29T19:54:07.418Z,100689.16
2022-08-29T19:56:37.579Z,100682.38
2022-08-29T19:59:07.759Z,100676.19
2022-08-29T20:01:38.325Z,100677.22
2022-08-29T20:04:08.892Z,100686.06
2022-08-29T20:06:41.554Z,100683.78
2022-08-29T20:09:14.075Z,100680.50
2022-08-29T20:11:44.271Z,100685.03
2022-08-29T20:14:14.641Z,100688.13
2022-08-29T20:16:46.276Z,100690.59
2022-08-29T20:19:17.171Z,100682.78
2022-08-29T20:21:47.541Z,100682.16
2022-08-29T20:24:18.184Z,100675.59
2022-08-29T20:26:49.252Z,100681.75
2022-08-29T20:29:21.075Z,100685.59
2022-08-29T20:31:51.604Z,100679.44
2022-08-29T20:34:22.023Z,100676.97
2022-08-29T20:37:10.983Z,100674.72
2022-08-29T20:39:47.453Z,100674.31
2022-08-29T20:42:22.006Z,100667.31
2022-08-29T20:44:52.930Z,100663.59
2022-08-29T20:47:25.106Z,100660.50
2022-08-29T20:49:58.142Z,100650.00
2022-08-29T20:52:28.877Z,100656.56
2022-08-29T20:54:58.138Z,100648.97
2022-08-29T20:57:28.513Z,100648.56
2022-08-29T20:59:59.019Z,100653.28
2022-08-29T21:02:47.617Z,100643.81
2022-08-29T21:05:36.694Z,100645.88
2022-08-29T21:08:07.822Z,100645.66
2022-08-29T21:10:39.277Z,100642.56
2022-08-29T21:13:10.394Z,100639.28
2022-08-29T21:15:42.845Z,100634.13
2022-08-29T21:18:15.818Z,100631.03
2022-08-29T21:20:56.542Z,100622.41
2022-08-29T21:23:28.008Z,100636.78
2022-08-29T21:26:02.218Z,100640.66
2022-08-29T21:28:38.023Z,100640.91
2022-08-29T21:31:13.167Z,100639.44
2022-08-29T21:33:46.772Z,100638.81
2022-08-29T21:36:21.066Z,100647.03
2022-08-29T21:38:56.737Z,100648.09
2022-08-29T21:41:29.680Z,100650.09
2022-08-29T21:44:00.632Z,100654.63
2022-08-29T21:46:34.108Z,100652.34
2022-08-29T21:49:09.034Z,100659.16
2022-08-29T21:51:39.961Z,100657.50
2022-08-29T21:54:13.413Z,100646.00
2022-08-29T21:56:45.301Z,100646.81
2022-08-29T21:59:18.340Z,100645.81
2022-08-29T22:01:54.833Z,100653.81
2022-08-29T22:04:28.834Z,100651.97
2022-08-29T22:07:00.996Z,100649.09
2022-08-29T22:09:33.739Z,100647.22
2022-08-29T22:12:05.078Z,100643.75
2022-08-29T22:14:54.056Z,100650.75
2022-08-29T22:17:24.955Z,100648.91
2022-08-29T22:19:55.653Z,100648.91
2022-08-29T22:22:25.868Z,100638.00
2022-08-29T22:24:55.984Z,100639.63
2022-08-29T22:27:26.551Z,100647.88
2022-08-29T22:29:56.271Z,100653.84
2022-08-29T22:32:27.415Z,100653.63
2022-08-29T22:35:08.232Z,100655.09
2022-08-29T22:37:38.455Z,100658.00
2022-08-29T22:40:16.329Z,100657.56
2022-08-29T22:42:47.653Z,100659.66
2022-08-29T22:45:20.093Z,100657.00
2022-08-29T22:47:50.190Z,100658.84
2022-08-29T22:50:24.683Z,100660.72
2022-08-29T22:53:00.159Z,100660.91
2022-08-29T22:58:01.667Z,100662.56
2022-08-29T23:00:31.689Z,100654.13
2022-08-29T23:03:04.323Z,100657.66
2022-08-29T23:05:34.479Z,100661.56
2022-08-29T23:08:03.846Z,100663.63
2022-08-29T23:10:33.876Z,100655.41
2022-08-29T23:13:03.961Z,100649.41
2022-08-29T23:15:34.001Z,100648.00
2022-08-29T23:18:05.838Z,100650.03
2022-08-29T23:20:35.776Z,100650.22
2022-08-29T23:23:08.498Z,100660.94
2022-08-29T23:25:38.914Z,100654.13
2022-08-29T23:28:09.634Z,100658.25
2022-08-29T23:30:40.357Z,100657.19
2022-08-29T23:33:10.626Z,100661.75
2022-08-29T23:35:39.911Z,100662.34
2022-08-29T23:38:09.975Z,100646.28
2022-08-29T23:40:41.197Z,100647.53
2022-08-29T23:43:12.291Z,100641.97
2022-08-29T23:45:42.964Z,100637.22
2022-08-29T23:48:13.188Z,100635.38
2022-08-29T23:50:45.360Z,100626.72
2022-08-29T23:53:19.701Z,100621.75
2022-08-29T23:55:49.738Z,100626.47
2022-08-29T23:58:21.034Z,100636.13
